sensor_id;sensor_type;location;lat;lon;timestamp;pressure;altitude;pressure_sealevel;temperature;humidity
45991;BME280;31721;41.740;-88.000;2024-03-07T00:00:22;99200.65;;;6.75;38.76
45991;BME280;31721;41.740;-88.000;2024-03-07T00:02:51;99201.88;;;6.74;38.66
45991;BME280;31721;41.740;-88.000;2024-03-07T00:05:20;99199.89;;;6.78;38.91
45991;BME280;31721;41.740;-88.000;2024-03-07T00:07:48;99200.21;;;6.29;39.43
45991;BME280;31721;41.740;-88.000;2024-03-07T00:10:16;99195.97;;;6.49;39.38
45991;BME280;31721;41.740;-88.000;2024-03-07T00:12:44;99205.55;;;6.43;39.15
45991;BME280;31721;41.740;-88.000;2024-03-07T00:15:13;99206.07;;;6.36;39.38
45991;BME280;31721;41.740;-88.000;2024-03-07T00:17:42;99209.20;;;6.34;38.94
45991;BME280;31721;41.740;-88.000;2024-03-07T00:20:11;99207.52;;;6.42;39.09
45991;BME280;31721;41.740;-88.000;2024-03-07T00:22:39;99211.35;;;6.34;39.10
45991;BME280;31721;41.740;-88.000;2024-03-07T00:25:08;99212.27;;;6.34;39.23
45991;BME280;31721;41.740;-88.000;2024-03-07T00:27:37;99207.91;;;6.25;39.48
45991;BME280;31721;41.740;-88.000;2024-03-07T00:30:06;99210.69;;;6.19;39.34
45991;BME280;31721;41.740;-88.000;2024-03-07T00:32:34;99210.28;;;6.17;39.38
45991;BME280;31721;41.740;-88.000;2024-03-07T00:35:02;99215.23;;;6.28;39.41
45991;BME280;31721;41.740;-88.000;2024-03-07T00:37:30;99215.71;;;6.21;39.52
45991;BME280;31721;41.740;-88.000;2024-03-07T00:39:58;99217.90;;;6.08;39.85
45991;BME280;31721;41.740;-88.000;2024-03-07T00:42:26;99217.80;;;5.82;39.77
45991;BME280;31721;41.740;-88.000;2024-03-07T00:44:54;99217.81;;;5.74;39.86
45991;BME280;31721;41.740;-88.000;2024-03-07T00:47:23;99218.57;;;5.93;40.04
45991;BME280;31721;41.740;-88.000;2024-03-07T00:49:51;99219.44;;;5.67;39.85
45991;BME280;31721;41.740;-88.000;2024-03-07T00:52:19;99224.14;;;5.73;39.76
45991;BME280;31721;41.740;-88.000;2024-03-07T00:54:47;99225.79;;;5.50;40.17
45991;BME280;31721;41.740;-88.000;2024-03-07T00:57:15;99229.74;;;5.69;40.22
45991;BME280;31721;41.740;-88.000;2024-03-07T00:59:43;99231.90;;;5.47;40.22
45991;BME280;31721;41.740;-88.000;2024-03-07T01:02:10;99237.42;;;5.60;39.98
45991;BME280;31721;41.740;-88.000;2024-03-07T01:04:37;99241.32;;;5.57;40.23
45991;BME280;31721;41.740;-88.000;2024-03-07T01:07:05;99241.69;;;5.56;40.24
45991;BME280;31721;41.740;-88.000;2024-03-07T01:09:34;99236.76;;;5.60;40.91
45991;BME280;31721;41.740;-88.000;2024-03-07T01:12:02;99243.11;;;5.41;41.15
45991;BME280;31721;41.740;-88.000;2024-03-07T01:14:30;99244.02;;;5.51;40.65
45991;BME280;31721;41.740;-88.000;2024-03-07T01:16:58;99244.59;;;5.43;40.83
45991;BME280;31721;41.740;-88.000;2024-03-07T01:19:25;99246.55;;;5.36;41.36
45991;BME280;31721;41.740;-88.000;2024-03-07T01:21:53;99246.29;;;5.34;41.36
45991;BME280;31721;41.740;-88.000;2024-03-07T01:24:21;99251.19;;;5.44;41.10
45991;BME280;31721;41.740;-88.000;2024-03-07T01:26:49;99250.93;;;5.26;41.44
45991;BME280;31721;41.740;-88.000;2024-03-07T01:29:18;99254.22;;;5.39;41.67
45991;BME280;31721;41.740;-88.000;2024-03-07T01:31:46;99252.87;;;5.49;41.43
45991;BME280;31721;41.740;-88.000;2024-03-07T01:34:14;99249.17;;;5.51;41.69
45991;BME280;31721;41.740;-88.000;2024-03-07T01:36:42;99249.15;;;5.42;41.66
45991;BME280;31721;41.740;-88.000;2024-03-07T01:39:10;99250.44;;;5.47;41.91
45991;BME280;31721;41.740;-88.000;2024-03-07T01:41:38;99255.39;;;5.47;41.81
45991;BME280;31721;41.740;-88.000;2024-03-07T01:44:06;99254.64;;;5.46;42.15
45991;BME280;31721;41.740;-88.000;2024-03-07T01:46:35;99254.37;;;5.36;42.67
45991;BME280;31721;41.740;-88.000;2024-03-07T01:49:03;99259.73;;;5.36;42.40
45991;BME280;31721;41.740;-88.000;2024-03-07T01:51:32;99262.31;;;5.44;42.73
45991;BME280;31721;41.740;-88.000;2024-03-07T01:53:59;99260.69;;;5.44;42.51
45991;BME280;31721;41.740;-88.000;2024-03-07T01:56:28;99262.64;;;5.35;42.76
45991;BME280;31721;41.740;-88.000;2024-03-07T01:58:57;99262.09;;;5.22;43.19
45991;BME280;31721;41.740;-88.000;2024-03-07T02:01:27;99262.34;;;5.35;43.14
45991;BME280;31721;41.740;-88.000;2024-03-07T02:03:56;99256.46;;;5.31;43.97
45991;BME280;31721;41.740;-88.000;2024-03-07T02:06:24;99256.63;;;5.26;43.50
45991;BME280;31721;41.740;-88.000;2024-03-07T02:08:53;99257.15;;;5.31;43.55
45991;BME280;31721;41.740;-88.000;2024-03-07T02:11:21;99255.74;;;5.37;43.74
45991;BME280;31721;41.740;-88.000;2024-03-07T02:13:49;99252.93;;;5.34;43.77
45991;BME280;31721;41.740;-88.000;2024-03-07T02:16:17;99250.35;;;5.33;43.73
45991;BME280;31721;41.740;-88.000;2024-03-07T02:18:45;99246.66;;;5.34;43.97
45991;BME280;31721;41.740;-88.000;2024-03-07T02:21:13;99245.22;;;5.36;44.11
45991;BME280;31721;41.740;-88.000;2024-03-07T02:23:41;99245.24;;;5.40;44.32
45991;BME280;31721;41.740;-88.000;2024-03-07T02:26:09;99245.82;;;5.29;44.09
45991;BME280;31721;41.740;-88.000;2024-03-07T02:28:38;99247.31;;;5.31;44.30
45991;BME280;31721;41.740;-88.000;2024-03-07T02:31:05;99247.76;;;5.30;44.46
45991;BME280;31721;41.740;-88.000;2024-03-07T02:33:32;99248.53;;;5.32;44.82
45991;BME280;31721;41.740;-88.000;2024-03-07T02:36:00;99252.90;;;5.34;44.70
45991;BME280;31721;41.740;-88.000;2024-03-07T02:38:28;99259.41;;;5.30;44.65
45991;BME280;31721;41.740;-88.000;2024-03-07T02:40:57;99259.78;;;5.33;44.76
45991;BME280;31721;41.740;-88.000;2024-03-07T02:43:25;99259.81;;;5.28;44.88
45991;BME280;31721;41.740;-88.000;2024-03-07T02:45:53;99265.17;;;5.27;45.12
45991;BME280;31721;41.740;-88.000;2024-03-07T02:48:21;99267.14;;;5.12;45.13
45991;BME280;31721;41.740;-88.000;2024-03-07T02:50:49;99271.65;;;5.19;45.17
45991;BME280;31721;41.740;-88.000;2024-03-07T02:53:17;99277.77;;;5.20;45.36
45991;BME280;31721;41.740;-88.000;2024-03-07T02:55:45;99282.28;;;5.14;45.49
45991;BME280;31721;41.740;-88.000;2024-03-07T02:58:13;99290.91;;;5.14;45.42
45991;BME280;31721;41.740;-88.000;2024-03-07T03:00:41;99296.83;;;5.08;45.62
45991;BME280;31721;41.740;-88.000;2024-03-07T03:03:08;99297.78;;;5.13;45.75
45991;BME280;31721;41.740;-88.000;2024-03-07T03:05:36;99302.31;;;5.03;46.02
45991;BME280;31721;41.740;-88.000;2024-03-07T03:08:04;99303.98;;;5.10;46.00
45991;BME280;31721;41.740;-88.000;2024-03-07T03:10:32;99307.83;;;5.11;46.17
45991;BME280;31721;41.740;-88.000;2024-03-07T03:13:01;99309.93;;;5.11;46.11
45991;BME280;31721;41.740;-88.000;2024-03-07T03:15:29;99312.44;;;5.07;46.06
45991;BME280;31721;41.740;-88.000;2024-03-07T03:17:57;99308.28;;;5.03;46.11
45991;BME280;31721;41.740;-88.000;2024-03-07T03:20:25;99304.63;;;5.04;46.32
45991;BME280;31721;41.740;-88.000;2024-03-07T03:22:54;99300.25;;;5.05;46.52
45991;BME280;31721;41.740;-88.000;2024-03-07T03:25:22;99299.83;;;5.01;46.69
45991;BME280;31721;41.740;-88.000;2024-03-07T03:27:49;99302.37;;;5.05;46.45
45991;BME280;31721;41.740;-88.000;2024-03-07T03:30:18;99301.43;;;4.96;46.78
45991;BME280;31721;41.740;-88.000;2024-03-07T03:32:46;99297.14;;;5.06;46.83
45991;BME280;31721;41.740;-88.000;2024-03-07T03:35:14;99299.62;;;5.06;46.83
45991;BME280;31721;41.740;-88.000;2024-03-07T03:37:42;99295.67;;;5.07;46.90
45991;BME280;31721;41.740;-88.000;2024-03-07T03:40:11;99298.60;;;5.18;46.98
45991;BME280;31721;41.740;-88.000;2024-03-07T03:42:41;99295.39;;;5.03;47.03
45991;BME280;31721;41.740;-88.000;2024-03-07T03:45:10;99288.88;;;4.98;47.35
45991;BME280;31721;41.740;-88.000;2024-03-07T03:47:38;99287.73;;;5.00;47.17
45991;BME280;31721;41.740;-88.000;2024-03-07T03:50:07;99285.71;;;4.99;47.20
45991;BME280;31721;41.740;-88.000;2024-03-07T03:52:36;99290.20;;;4.95;47.14
45991;BME280;31721;41.740;-88.000;2024-03-07T03:55:05;99290.29;;;4.98;47.41
45991;BME280;31721;41.740;-88.000;2024-03-07T03:57:33;99288.88;;;4.75;47.49
45991;BME280;31721;41.740;-88.000;2024-03-07T04:00:01;99285.64;;;4.82;47.46
45991;BME280;31721;41.740;-88.000;2024-03-07T04:02:29;99278.66;;;4.82;47.61
45991;BME280;31721;41.740;-88.000;2024-03-07T04:04:57;99273.46;;;4.97;47.72
45991;BME280;31721;41.740;-88.000;2024-03-07T04:07:24;99270.55;;;4.88;47.69
45991;BME280;31721;41.740;-88.000;2024-03-07T04:09:52;99265.68;;;4.71;47.77
45991;BME280;31721;41.740;-88.000;2024-03-07T04:12:20;99268.43;;;4.84;47.78
45991;BME280;31721;41.740;-88.000;2024-03-07T04:14:48;99269.14;;;4.70;47.87
45991;BME280;31721;41.740;-88.000;2024-03-07T04:17:16;99265.10;;;4.68;47.81
45991;BME280;31721;41.740;-88.000;2024-03-07T04:19:44;99263.07;;;4.66;47.97
45991;BME280;31721;41.740;-88.000;2024-03-07T04:22:11;99262.96;;;4.78;48.02
45991;BME280;31721;41.740;-88.000;2024-03-07T04:24:39;99265.30;;;4.75;48.19
45991;BME280;31721;41.740;-88.000;2024-03-07T04:27:07;99265.98;;;4.66;48.04
45991;BME280;31721;41.740;-88.000;2024-03-07T04:29:34;99266.88;;;4.70;48.15
45991;BME280;31721;41.740;-88.000;2024-03-07T04:32:03;99270.05;;;4.62;48.06
45991;BME280;31721;41.740;-88.000;2024-03-07T04:34:31;99268.49;;;4.66;48.18
45991;BME280;31721;41.740;-88.000;2024-03-07T04:37:00;99264.53;;;4.52;48.10
45991;BME280;31721;41.740;-88.000;2024-03-07T04:39:28;99257.44;;;4.57;48.32
45991;BME280;31721;41.740;-88.000;2024-03-07T04:41:56;99250.33;;;4.54;48.27
45991;BME280;31721;41.740;-88.000;2024-03-07T04:44:23;99250.28;;;4.54;48.30
45991;BME280;31721;41.740;-88.000;2024-03-07T04:46:51;99247.13;;;4.65;48.28
45991;BME280;31721;41.740;-88.000;2024-03-07T04:49:18;99247.30;;;4.46;48.15
45991;BME280;31721;41.740;-88.000;2024-03-07T04:51:46;99250.08;;;4.46;48.26
45991;BME280;31721;41.740;-88.000;2024-03-07T04:54:13;99251.87;;;4.57;48.10
45991;BME280;31721;41.740;-88.000;2024-03-07T04:56:41;99251.13;;;4.41;47.99
45991;BME280;31721;41.740;-88.000;2024-03-07T04:59:09;99253.04;;;4.34;47.90
45991;BME280;31721;41.740;-88.000;2024-03-07T05:01:36;99254.61;;;4.36;47.77
45991;BME280;31721;41.740;-88.000;2024-03-07T05:04:04;99260.68;;;4.29;47.69
45991;BME280;31721;41.740;-88.000;2024-03-07T05:06:32;99264.18;;;4.21;47.50
45991;BME280;31721;41.740;-88.000;2024-03-07T05:09:00;99266.74;;;4.23;47.43
45991;BME280;31721;41.740;-88.000;2024-03-07T05:11:28;99268.21;;;4.40;47.43
45991;BME280;31721;41.740;-88.000;2024-03-07T05:13:57;99266.12;;;4.35;47.40
45991;BME280;31721;41.740;-88.000;2024-03-07T05:16:25;99266.12;;;4.28;47.25
45991;BME280;31721;41.740;-88.000;2024-03-07T05:18:53;99264.14;;;4.41;47.34
45991;BME280;31721;41.740;-88.000;2024-03-07T05:21:21;99263.97;;;4.39;47.14
45991;BME280;31721;41.740;-88.000;2024-03-07T05:23:48;99268.15;;;4.40;47.06
45991;BME280;31721;41.740;-88.000;2024-03-07T05:26:16;99266.29;;;4.45;46.71
45991;BME280;31721;41.740;-88.000;2024-03-07T05:28:44;99268.23;;;4.45;46.63
45991;BME280;31721;41.740;-88.000;2024-03-07T05:31:11;99269.43;;;4.40;46.78
45991;BME280;31721;41.740;-88.000;2024-03-07T05:33:39;99267.55;;;4.38;46.79
45991;BME280;31721;41.740;-88.000;2024-03-07T05:36:07;99263.20;;;4.39;46.62
45991;BME280;31721;41.740;-88.000;2024-03-07T05:38:35;99260.83;;;4.39;46.76
45991;BME280;31721;41.740;-88.000;2024-03-07T05:41:02;99258.49;;;4.40;46.62
45991;BME280;31721;41.740;-88.000;2024-03-07T05:43:29;99259.50;;;4.46;46.54
45991;BME280;31721;41.740;-88.000;2024-03-07T05:45:57;99266.82;;;4.49;46.50
45991;BME280;31721;41.740;-88.000;2024-03-07T05:48:24;99267.62;;;4.49;46.40
45991;BME280;31721;41.740;-88.000;2024-03-07T05:50:52;99267.22;;;4.48;46.18
45991;BME280;31721;41.740;-88.000;2024-03-07T05:53:19;99266.76;;;4.43;46.37
45991;BME280;31721;41.740;-88.000;2024-03-07T05:55:47;99267.72;;;4.38;45.86
45991;BME280;31721;41.740;-88.000;2024-03-07T05:58:14;99267.05;;;4.30;46.21
45991;BME280;31721;41.740;-88.000;2024-03-07T06:00:44;99268.32;;;4.22;46.03
45991;BME280;31721;41.740;-88.000;2024-03-07T06:03:11;99267.34;;;4.35;46.10
45991;BME280;31721;41.740;-88.000;2024-03-07T06:05:40;99259.19;;;4.32;46.08
45991;BME280;31721;41.740;-88.000;2024-03-07T06:08:07;99254.44;;;4.24;46.10
45991;BME280;31721;41.740;-88.000;2024-03-07T06:10:35;99253.70;;;4.32;46.23
45991;BME280;31721;41.740;-88.000;2024-03-07T06:13:03;99255.51;;;4.31;45.89
45991;BME280;31721;41.740;-88.000;2024-03-07T06:15:31;99256.92;;;4.31;45.30
45991;BME280;31721;41.740;-88.000;2024-03-07T06:17:59;99255.45;;;4.33;45.00
45991;BME280;31721;41.740;-88.000;2024-03-07T06:20:26;99252.14;;;4.25;44.99
45991;BME280;31721;41.740;-88.000;2024-03-07T06:22:54;99248.29;;;4.24;44.96
45991;BME280;31721;41.740;-88.000;2024-03-07T06:25:22;99250.33;;;4.26;45.07
45991;BME280;31721;41.740;-88.000;2024-03-07T06:27:49;99250.64;;;4.19;44.42
45991;BME280;31721;41.740;-88.000;2024-03-07T06:30:17;99247.09;;;4.19;44.25
45991;BME280;31721;41.740;-88.000;2024-03-07T06:32:44;99244.95;;;4.21;44.05
45991;BME280;31721;41.740;-88.000;2024-03-07T06:35:12;99244.88;;;4.13;43.99
45991;BME280;31721;41.740;-88.000;2024-03-07T06:37:39;99242.99;;;4.24;43.88
45991;BME280;31721;41.740;-88.000;2024-03-07T06:40:08;99243.90;;;4.30;43.85
45991;BME280;31721;41.740;-88.000;2024-03-07T06:42:37;99240.15;;;4.24;43.72
45991;BME280;31721;41.740;-88.000;2024-03-07T06:45:05;99238.41;;;4.34;43.39
45991;BME280;31721;41.740;-88.000;2024-03-07T06:47:32;99240.95;;;4.19;43.49
45991;BME280;31721;41.740;-88.000;2024-03-07T06:50:00;99246.44;;;3.98;43.64
45991;BME280;31721;41.740;-88.000;2024-03-07T06:52:28;99252.43;;;4.13;43.54
45991;BME280;31721;41.740;-88.000;2024-03-07T06:54:56;99253.84;;;4.17;43.55
45991;BME280;31721;41.740;-88.000;2024-03-07T06:57:24;99256.81;;;4.25;43.38
45991;BME280;31721;41.740;-88.000;2024-03-07T06:59:52;99252.28;;;4.16;43.46
45991;BME280;31721;41.740;-88.000;2024-03-07T07:02:20;99248.25;;;4.11;43.55
45991;BME280;31721;41.740;-88.000;2024-03-07T07:04:48;99241.91;;;4.16;43.66
45991;BME280;31721;41.740;-88.000;2024-03-07T07:07:16;99247.94;;;4.02;43.76
45991;BME280;31721;41.740;-88.000;2024-03-07T07:09:45;99255.23;;;4.05;43.82
45991;BME280;31721;41.740;-88.000;2024-03-07T07:12:13;99260.18;;;4.06;43.89
45991;BME280;31721;41.740;-88.000;2024-03-07T07:14:42;99265.94;;;4.05;44.22
45991;BME280;31721;41.740;-88.000;2024-03-07T07:17:09;99270.88;;;4.00;44.36
45991;BME280;31721;41.740;-88.000;2024-03-07T07:19:37;99271.17;;;4.10;44.41
45991;BME280;31721;41.740;-88.000;2024-03-07T07:22:04;99272.88;;;4.07;44.56
45991;BME280;31721;41.740;-88.000;2024-03-07T07:24:33;99271.74;;;4.19;44.66
45991;BME280;31721;41.740;-88.000;2024-03-07T07:27:00;99274.37;;;4.20;44.65
45991;BME280;31721;41.740;-88.000;2024-03-07T07:29:28;99275.81;;;4.18;44.87
45991;BME280;31721;41.740;-88.000;2024-03-07T07:31:56;99278.47;;;4.16;45.06
45991;BME280;31721;41.740;-88.000;2024-03-07T07:34:24;99271.75;;;4.26;44.80
45991;BME280;31721;41.740;-88.000;2024-03-07T07:36:51;99272.11;;;4.37;44.99
45991;BME280;31721;41.740;-88.000;2024-03-07T07:39:19;99265.22;;;4.39;45.18
45991;BME280;31721;41.740;-88.000;2024-03-07T07:41:46;99260.42;;;4.41;45.13
45991;BME280;31721;41.740;-88.000;2024-03-07T07:44:16;99253.99;;;4.21;45.16
45991;BME280;31721;41.740;-88.000;2024-03-07T07:46:44;99251.41;;;4.16;45.29
45991;BME280;31721;41.740;-88.000;2024-03-07T07:49:11;99248.56;;;4.13;45.69
45991;BME280;31721;41.740;-88.000;2024-03-07T07:51:39;99248.44;;;4.25;45.71
45991;BME280;31721;41.740;-88.000;2024-03-07T07:54:07;99245.56;;;3.88;46.81
45991;BME280;31721;41.740;-88.000;2024-03-07T07:56:34;99241.81;;;4.12;46.19
45991;BME280;31721;41.740;-88.000;2024-03-07T07:59:02;99240.25;;;4.22;46.44
45991;BME280;31721;41.740;-88.000;2024-03-07T08:01:32;99240.42;;;4.08;46.42
45991;BME280;31721;41.740;-88.000;2024-03-07T08:04:01;99236.34;;;3.99;46.33
45991;BME280;31721;41.740;-88.000;2024-03-07T08:06:28;99230.76;;;4.00;46.29
45991;BME280;31721;41.740;-88.000;2024-03-07T08:08:56;99229.09;;;4.15;46.39
45991;BME280;31721;41.740;-88.000;2024-03-07T08:11:23;99230.24;;;4.15;46.44
45991;BME280;31721;41.740;-88.000;2024-03-07T08:13:51;99234.40;;;4.08;46.93
45991;BME280;31721;41.740;-88.000;2024-03-07T08:16:20;99243.51;;;4.01;47.69
45991;BME280;31721;41.740;-88.000;2024-03-07T08:18:48;99247.25;;;4.05;46.92
45991;BME280;31721;41.740;-88.000;2024-03-07T08:21:16;99248.80;;;4.09;47.04
45991;BME280;31721;41.740;-88.000;2024-03-07T08:23:45;99246.12;;;4.15;47.15
45991;BME280;31721;41.740;-88.000;2024-03-07T08:26:12;99246.47;;;4.19;46.97
45991;BME280;31721;41.740;-88.000;2024-03-07T08:28:40;99247.71;;;4.19;47.15
45991;BME280;31721;41.740;-88.000;2024-03-07T08:31:08;99247.63;;;4.04;47.43
45991;BME280;31721;41.740;-88.000;2024-03-07T08:33:36;99243.46;;;3.96;47.85
45991;BME280;31721;41.740;-88.000;2024-03-07T08:36:04;99234.07;;;4.00;47.66
45991;BME280;31721;41.740;-88.000;2024-03-07T08:38:32;99230.75;;;4.05;47.73
45991;BME280;31721;41.740;-88.000;2024-03-07T08:40:59;99229.06;;;4.13;47.78
45991;BME280;31721;41.740;-88.000;2024-03-07T08:43:27;99228.11;;;4.08;47.70
45991;BME280;31721;41.740;-88.000;2024-03-07T08:45:55;99227.55;;;4.13;47.86
45991;BME280;31721;41.740;-88.000;2024-03-07T08:48:23;99229.07;;;4.18;47.95
45991;BME280;31721;41.740;-88.000;2024-03-07T08:50:50;99226.26;;;4.14;48.08
45991;BME280;31721;41.740;-88.000;2024-03-07T08:53:18;99223.64;;;4.21;48.09
45991;BME280;31721;41.740;-88.000;2024-03-07T08:55:46;99217.35;;;4.13;48.20
45991;BME280;31721;41.740;-88.000;2024-03-07T08:58:13;99220.94;;;4.20;48.28
45991;BME280;31721;41.740;-88.000;2024-03-07T09:00:41;99223.48;;;4.18;48.30
45991;BME280;31721;41.740;-88.000;2024-03-07T09:03:08;99224.82;;;4.11;48.45
45991;BME280;31721;41.740;-88.000;2024-03-07T09:05:36;99218.25;;;4.12;48.52
45991;BME280;31721;41.740;-88.000;2024-03-07T09:08:04;99212.59;;;4.13;48.62
45991;BME280;31721;41.740;-88.000;2024-03-07T09:10:31;99211.42;;;3.97;48.54
45991;BME280;31721;41.740;-88.000;2024-03-07T09:12:59;99209.79;;;4.08;48.81
45991;BME280;31721;41.740;-88.000;2024-03-07T09:15:26;99213.26;;;4.06;48.89
45991;BME280;31721;41.740;-88.000;2024-03-07T09:17:54;99214.09;;;4.10;48.95
45991;BME280;31721;41.740;-88.000;2024-03-07T09:20:22;99218.86;;;4.07;49.12
45991;BME280;31721;41.740;-88.000;2024-03-07T09:22:51;99217.71;;;4.06;49.04
45991;BME280;31721;41.740;-88.000;2024-03-07T09:25:19;99211.00;;;4.03;49.33
45991;BME280;31721;41.740;-88.000;2024-03-07T09:27:46;99209.69;;;4.09;49.25
45991;BME280;31721;41.740;-88.000;2024-03-07T09:30:15;99209.81;;;4.17;49.40
45991;BME280;31721;41.740;-88.000;2024-03-07T09:32:43;99212.49;;;4.21;49.26
45991;BME280;31721;41.740;-88.000;2024-03-07T09:35:11;99214.33;;;4.11;49.40
45991;BME280;31721;41.740;-88.000;2024-03-07T09:37:40;99210.54;;;4.01;49.49
45991;BME280;31721;41.740;-88.000;2024-03-07T09:40:09;99207.85;;;4.04;49.52
45991;BME280;31721;41.740;-88.000;2024-03-07T09:42:43;99206.00;;;3.92;49.65
45991;BME280;31721;41.740;-88.000;2024-03-07T09:45:14;99204.45;;;3.97;49.69
45991;BME280;31721;41.740;-88.000;2024-03-07T09:47:45;99199.60;;;3.96;49.79
45991;BME280;31721;41.740;-88.000;2024-03-07T09:50:15;99192.91;;;3.94;49.76
45991;BME280;31721;41.740;-88.000;2024-03-07T09:52:45;99182.55;;;3.90;49.95
45991;BME280;31721;41.740;-88.000;2024-03-07T09:55:13;99178.20;;;3.84;50.16
45991;BME280;31721;41.740;-88.000;2024-03-07T09:57:42;99184.75;;;3.87;50.32
45991;BME280;31721;41.740;-88.000;2024-03-07T10:00:12;99198.49;;;3.91;50.24
45991;BME280;31721;41.740;-88.000;2024-03-07T10:02:40;99209.50;;;3.85;50.14
45991;BME280;31721;41.740;-88.000;2024-03-07T10:05:10;99212.45;;;3.98;50.35
45991;BME280;31721;41.740;-88.000;2024-03-07T10:07:42;99217.71;;;4.00;50.27
45991;BME280;31721;41.740;-88.000;2024-03-07T10:10:10;99223.74;;;3.96;50.00
45991;BME280;31721;41.740;-88.000;2024-03-07T10:12:38;99233.78;;;3.93;50.38
45991;BME280;31721;41.740;-88.000;2024-03-07T10:15:07;99243.40;;;4.04;50.25
45991;BME280;31721;41.740;-88.000;2024-03-07T10:17:35;99249.33;;;3.99;50.29
45991;BME280;31721;41.740;-88.000;2024-03-07T10:20:03;99250.82;;;3.88;50.25
45991;BME280;31721;41.740;-88.000;2024-03-07T10:22:31;99248.35;;;3.94;50.37
45991;BME280;31721;41.740;-88.000;2024-03-07T10:24:58;99247.02;;;3.90;50.52
45991;BME280;31721;41.740;-88.000;2024-03-07T10:27:27;99245.71;;;3.77;50.71
45991;BME280;31721;41.740;-88.000;2024-03-07T10:29:55;99244.40;;;3.89;50.80
45991;BME280;31721;41.740;-88.000;2024-03-07T10:32:23;99241.32;;;3.85;50.92
45991;BME280;31721;41.740;-88.000;2024-03-07T10:34:51;99236.05;;;3.88;51.08
45991;BME280;31721;41.740;-88.000;2024-03-07T10:37:20;99228.93;;;3.90;51.10
45991;BME280;31721;41.740;-88.000;2024-03-07T10:39:48;99221.59;;;3.95;51.12
45991;BME280;31721;41.740;-88.000;2024-03-07T10:42:17;99219.19;;;3.94;51.31
45991;BME280;31721;41.740;-88.000;2024-03-07T10:44:46;99233.51;;;3.95;50.99
45991;BME280;31721;41.740;-88.000;2024-03-07T10:47:17;99251.00;;;4.04;51.16
45991;BME280;31721;41.740;-88.000;2024-03-07T10:49:55;99261.22;;;3.97;50.89
45991;BME280;31721;41.740;-88.000;2024-03-07T10:52:35;99262.11;;;3.94;51.04
45991;BME280;31721;41.740;-88.000;2024-03-07T10:55:12;99263.63;;;4.00;51.26
45991;BME280;31721;41.740;-88.000;2024-03-07T10:57:50;99268.55;;;3.96;50.86
45991;BME280;31721;41.740;-88.000;2024-03-07T11:00:18;99272.00;;;3.94;51.28
45991;BME280;31721;41.740;-88.000;2024-03-07T11:02:47;99260.23;;;4.01;51.36
45991;BME280;31721;41.740;-88.000;2024-03-07T11:05:17;99246.50;;;4.02;51.33
45991;BME280;31721;41.740;-88.000;2024-03-07T11:07:45;99244.03;;;4.18;51.55
45991;BME280;31721;41.740;-88.000;2024-03-07T11:10:14;99245.16;;;4.19;51.53
45991;BME280;31721;41.740;-88.000;2024-03-07T11:12:42;99245.77;;;4.08;51.60
45991;BME280;31721;41.740;-88.000;2024-03-07T11:15:12;99237.66;;;4.27;51.71
45991;BME280;31721;41.740;-88.000;2024-03-07T11:17:42;99227.60;;;4.23;51.72
45991;BME280;31721;41.740;-88.000;2024-03-07T11:20:31;99220.91;;;4.18;51.50
45991;BME280;31721;41.740;-88.000;2024-03-07T11:23:24;99212.46;;;4.25;51.58
45991;BME280;31721;41.740;-88.000;2024-03-07T11:25:54;99211.65;;;4.13;51.42
45991;BME280;31721;41.740;-88.000;2024-03-07T11:28:29;99209.46;;;4.26;51.59
45991;BME280;31721;41.740;-88.000;2024-03-07T11:31:07;99203.16;;;4.17;51.35
45991;BME280;31721;41.740;-88.000;2024-03-07T11:33:37;99200.96;;;4.24;51.57
45991;BME280;31721;41.740;-88.000;2024-03-07T11:36:06;99212.54;;;4.15;51.50
45991;BME280;31721;41.740;-88.000;2024-03-07T11:38:34;99222.44;;;4.10;51.39
45991;BME280;31721;41.740;-88.000;2024-03-07T11:41:02;99225.88;;;4.11;51.44
45991;BME280;31721;41.740;-88.000;2024-03-07T11:43:30;99229.13;;;4.04;52.21
45991;BME280;31721;41.740;-88.000;2024-03-07T11:45:59;99230.14;;;4.05;51.59
45991;BME280;31721;41.740;-88.000;2024-03-07T11:48:27;99218.63;;;4.02;51.64
45991;BME280;31721;41.740;-88.000;2024-03-07T11:50:55;99209.14;;;4.02;51.76
45991;BME280;31721;41.740;-88.000;2024-03-07T11:53:23;99218.01;;;4.05;51.76
45991;BME280;31721;41.740;-88.000;2024-03-07T11:55:51;99218.75;;;3.98;51.87
45991;BME280;31721;41.740;-88.000;2024-03-07T11:58:20;99212.73;;;3.98;51.98
45991;BME280;31721;41.740;-88.000;2024-03-07T12:00:49;99221.74;;;4.01;52.10
45991;BME280;31721;41.740;-88.000;2024-03-07T12:03:19;99243.86;;;4.18;52.31
45991;BME280;31721;41.740;-88.000;2024-03-07T12:05:48;99256.18;;;4.24;51.92
45991;BME280;31721;41.740;-88.000;2024-03-07T12:08:16;99251.23;;;4.19;51.89
45991;BME280;31721;41.740;-88.000;2024-03-07T12:10:45;99242.53;;;4.13;51.97
45991;BME280;31721;41.740;-88.000;2024-03-07T12:13:13;99246.37;;;4.20;52.31
45991;BME280;31721;41.740;-88.000;2024-03-07T12:15:41;99247.65;;;4.23;51.93
45991;BME280;31721;41.740;-88.000;2024-03-07T12:18:10;99241.31;;;4.22;52.20
45991;BME280;31721;41.740;-88.000;2024-03-07T12:20:40;99229.19;;;4.25;52.42
45991;BME280;31721;41.740;-88.000;2024-03-07T12:23:08;99224.95;;;4.29;52.56
45991;BME280;31721;41.740;-88.000;2024-03-07T12:25:37;99229.20;;;4.29;52.64
45991;BME280;31721;41.740;-88.000;2024-03-07T12:28:07;99229.17;;;4.24;52.52
45991;BME280;31721;41.740;-88.000;2024-03-07T12:30:37;99238.00;;;4.30;52.74
45991;BME280;31721;41.740;-88.000;2024-03-07T12:33:17;99257.78;;;4.46;52.45
45991;BME280;31721;41.740;-88.000;2024-03-07T12:35:46;99263.69;;;4.58;52.25
45991;BME280;31721;41.740;-88.000;2024-03-07T12:38:14;99265.41;;;4.45;52.17
45991;BME280;31721;41.740;-88.000;2024-03-07T12:40:42;99269.73;;;4.50;52.48
45991;BME280;31721;41.740;-88.000;2024-03-07T12:43:18;99280.69;;;4.46;52.43
45991;BME280;31721;41.740;-88.000;2024-03-07T12:45:49;99277.57;;;4.51;52.39
45991;BME280;31721;41.740;-88.000;2024-03-07T12:48:18;99270.83;;;4.63;52.61
45991;BME280;31721;41.740;-88.000;2024-03-07T12:50:47;99265.47;;;4.62;52.64
45991;BME280;31721;41.740;-88.000;2024-03-07T12:53:15;99266.12;;;4.67;52.60
45991;BME280;31721;41.740;-88.000;2024-03-07T12:55:44;99270.99;;;4.72;52.66